createdAt,value
2017-11-30T00:00:28.036Z,91.53
2017-11-30T00:02:55.452Z,91.45
2017-11-30T00:05:22.849Z,91.21
2017-11-30T00:07:50.244Z,91.18
2017-11-30T00:10:17.655Z,91.42
2017-11-30T00:12:45.048Z,92.27
2017-11-30T00:15:12.451Z,92.76
2017-11-30T00:17:39.852Z,92.82
2017-11-30T00:20:07.270Z,92.55
2017-11-30T00:22:34.656Z,92.23
2017-11-30T00:25:02.104Z,92.06
2017-11-30T00:27:29.484Z,91.92
2017-11-30T00:29:56.876Z,91.89
2017-11-30T00:32:24.284Z,92.69
2017-11-30T00:34:51.675Z,92.91
2017-11-30T00:37:19.092Z,92.98
2017-11-30T00:39:58.279Z,93.11
2017-11-30T00:42:37.475Z,92.75
2017-11-30T00:45:04.876Z,92.67
2017-11-30T00:47:32.266Z,92.54
2017-11-30T00:49:59.672Z,92.29
2017-11-30T00:52:27.072Z,92.32
2017-11-30T00:54:54.471Z,92.11
2017-11-30T00:57:21.885Z,91.98
2017-11-30T00:59:49.280Z,92.15
2017-11-30T01:02:16.684Z,91.95
2017-11-30T01:04:44.099Z,92.18
2017-11-30T01:07:11.492Z,92.10
2017-11-30T01:09:38.888Z,92.48
2017-11-30T01:12:06.307Z,92.34
2017-11-30T01:14:33.696Z,92.61
2017-11-30T01:17:01.099Z,92.54
2017-11-30T01:19:28.504Z,92.74
2017-11-30T01:21:55.910Z,92.94
2017-11-30T01:24:23.318Z,92.75
2017-11-30T01:26:50.733Z,93.01
2017-11-30T01:29:18.117Z,92.70
2017-11-30T01:31:45.512Z,92.70
2017-11-30T01:34:12.923Z,92.91
2017-11-30T01:36:40.323Z,93.26
2017-11-30T01:39:07.707Z,93.76
2017-11-30T01:41:35.120Z,93.69
2017-11-30T01:44:02.517Z,93.71
2017-11-30T01:46:29.912Z,93.92
2017-11-30T01:48:57.324Z,94.30
2017-11-30T01:51:24.716Z,94.24
2017-11-30T01:53:52.120Z,94.23
2017-11-30T01:56:19.525Z,93.85
2017-11-30T01:58:46.933Z,93.84
2017-11-30T02:01:14.329Z,93.46
2017-11-30T02:03:41.737Z,93.19
2017-11-30T02:06:09.126Z,93.02
2017-11-30T02:08:36.520Z,92.70
2017-11-30T02:11:03.935Z,92.48
2017-11-30T02:13:31.339Z,92.38
2017-11-30T02:15:58.724Z,92.16
2017-11-30T02:18:26.135Z,92.04
2017-11-30T02:20:53.526Z,92.01
2017-11-30T02:23:20.928Z,92.00
2017-11-30T02:25:48.332Z,91.95
2017-11-30T02:28:15.739Z,91.90
2017-11-30T02:30:43.155Z,91.88
2017-11-30T02:33:10.556Z,91.63
2017-11-30T02:35:37.963Z,91.51
2017-11-30T02:38:05.361Z,91.39
2017-11-30T02:40:32.771Z,90.40
2017-11-30T02:43:00.173Z,90.23
2017-11-30T02:45:28.412Z,90.39
2017-11-30T02:47:55.833Z,90.62
2017-11-30T02:50:23.229Z,90.78
2017-11-30T02:52:50.648Z,90.87
2017-11-30T02:55:18.069Z,90.81
2017-11-30T02:57:45.468Z,90.84
2017-11-30T03:00:12.868Z,90.93
2017-11-30T03:02:40.288Z,90.88
2017-11-30T03:05:07.688Z,90.67
2017-11-30T03:07:35.078Z,90.68
2017-11-30T03:10:02.505Z,90.77
2017-11-30T03:12:29.908Z,90.81
2017-11-30T03:32:20.287Z,91.08
2017-11-30T03:34:47.691Z,91.07
2017-11-30T03:37:15.088Z,91.04
2017-11-30T03:39:42.500Z,90.06
2017-11-30T03:42:09.895Z,89.88
2017-11-30T03:44:37.291Z,90.17
2017-11-30T03:47:04.702Z,90.22
2017-11-30T03:49:32.136Z,90.11
2017-11-30T03:51:59.529Z,89.82
2017-11-30T03:54:26.972Z,89.95
2017-11-30T03:56:54.400Z,90.19
2017-11-30T03:59:21.796Z,90.42
2017-11-30T04:01:49.198Z,90.38
2017-11-30T04:04:16.612Z,89.56
2017-11-30T04:06:43.999Z,89.89
2017-11-30T04:09:11.446Z,90.08
2017-11-30T04:11:38.861Z,89.94
2017-11-30T04:14:12.260Z,90.20
2017-11-30T04:16:39.667Z,90.39
2017-11-30T04:19:07.057Z,90.49
2017-11-30T04:21:34.492Z,90.48
2017-11-30T04:24:01.885Z,90.54
2017-11-30T04:26:29.290Z,90.53
2017-11-30T04:28:56.702Z,90.73
2017-11-30T04:31:24.112Z,90.84
2017-11-30T04:33:51.511Z,90.81
2017-11-30T04:36:18.944Z,91.03
2017-11-30T04:38:46.334Z,90.66
2017-11-30T04:41:13.767Z,90.24
2017-11-30T04:43:41.159Z,90.35
2017-11-30T04:46:08.567Z,90.37
2017-11-30T04:48:35.967Z,90.42
2017-11-30T04:51:03.360Z,90.39
2017-11-30T04:53:30.803Z,90.56
2017-11-30T04:55:58.204Z,90.65
2017-11-30T04:58:25.620Z,90.46
2017-11-30T05:00:53.025Z,90.60
2017-11-30T05:03:20.416Z,90.54
2017-11-30T05:05:47.831Z,90.56
2017-11-30T05:08:15.243Z,90.73
2017-11-30T05:10:42.687Z,90.70
2017-11-30T05:13:10.620Z,90.71
2017-11-30T05:15:37.995Z,90.61
2017-11-30T05:18:05.415Z,90.49
2017-11-30T05:20:32.843Z,90.44
2017-11-30T05:23:00.230Z,90.38
2017-11-30T05:25:27.632Z,90.52
2017-11-30T05:27:55.061Z,90.17
2017-11-30T05:30:22.459Z,90.14
2017-11-30T05:32:49.884Z,90.31
2017-11-30T05:35:17.327Z,90.59
2017-11-30T05:37:44.767Z,90.77
2017-11-30T05:40:12.176Z,90.62
2017-11-30T05:42:39.587Z,90.64
2017-11-30T05:45:06.993Z,90.81
2017-11-30T05:47:34.432Z,90.91
2017-11-30T05:50:01.853Z,90.98
2017-11-30T05:52:29.237Z,91.17
2017-11-30T05:54:56.640Z,91.42
2017-11-30T05:57:24.073Z,91.18
2017-11-30T05:59:51.480Z,90.74
2017-11-30T06:02:18.875Z,90.80
2017-11-30T06:04:46.344Z,91.10
2017-11-30T06:07:13.732Z,90.58
2017-11-30T06:09:41.127Z,90.36
2017-11-30T06:12:08.540Z,90.03
2017-11-30T06:14:35.956Z,90.39
2017-11-30T06:17:03.350Z,90.46
2017-11-30T06:19:30.791Z,90.54
2017-11-30T06:21:58.201Z,90.65
2017-11-30T06:24:25.653Z,90.65
2017-11-30T06:26:53.060Z,90.78
2017-11-30T06:29:20.488Z,91.03
2017-11-30T06:31:47.937Z,91.10
2017-11-30T06:34:15.347Z,91.30
2017-11-30T06:36:42.759Z,91.54
2017-11-30T06:39:10.152Z,91.36
2017-11-30T06:41:37.563Z,91.02
2017-11-30T06:44:04.959Z,90.95
2017-11-30T06:46:32.387Z,90.68
2017-11-30T06:48:59.795Z,90.61
2017-11-30T06:51:27.199Z,90.75
2017-11-30T06:53:54.638Z,90.85
2017-11-30T06:56:22.032Z,90.73
2017-11-30T06:58:49.440Z,90.82
2017-11-30T07:01:16.839Z,90.92
2017-11-30T07:03:44.245Z,91.00
2017-11-30T07:06:11.652Z,91.30
2017-11-30T07:08:39.079Z,91.19
2017-11-30T07:11:06.500Z,91.33
2017-11-30T07:13:33.902Z,90.83
2017-11-30T07:16:01.324Z,91.03
2017-11-30T07:18:29.052Z,91.16
2017-11-30T07:20:56.467Z,91.21
2017-11-30T07:23:23.893Z,91.31
2017-11-30T07:25:51.389Z,91.48
2017-11-30T07:28:18.797Z,91.69
2017-11-30T07:30:46.206Z,91.12
2017-11-30T07:33:13.660Z,91.20
2017-11-30T07:35:41.101Z,91.24
2017-11-30T07:38:08.503Z,91.34
2017-11-30T07:40:35.948Z,91.20
2017-11-30T07:43:03.409Z,91.35
2017-11-30T07:45:30.816Z,91.48
2017-11-30T07:47:58.220Z,91.66
2017-11-30T07:50:25.620Z,91.72
2017-11-30T07:52:53.037Z,91.50
2017-11-30T07:55:20.461Z,91.38
2017-11-30T07:57:47.859Z,91.39
2017-11-30T08:00:15.243Z,91.09
2017-11-30T08:02:42.651Z,91.35
2017-11-30T08:05:10.073Z,91.53
2017-11-30T08:07:37.503Z,91.46
2017-11-30T08:10:04.942Z,90.75
2017-11-30T08:12:32.354Z,91.18
2017-11-30T08:14:59.764Z,91.52
2017-11-30T08:17:27.192Z,91.11
2017-11-30T08:19:54.600Z,91.25
2017-11-30T08:22:22.010Z,91.38
2017-11-30T08:24:49.440Z,91.52
2017-11-30T08:27:16.856Z,91.48
2017-11-30T08:29:44.252Z,91.05
2017-11-30T08:32:11.662Z,91.21
2017-11-30T08:34:39.051Z,91.37
2017-11-30T08:37:06.450Z,91.39
2017-11-30T08:39:33.869Z,91.06
2017-11-30T08:42:01.261Z,91.27
2017-11-30T08:44:28.658Z,91.32
2017-11-30T08:46:56.073Z,90.93
2017-11-30T08:49:23.484Z,91.02
2017-11-30T08:51:50.892Z,91.36
2017-11-30T08:54:18.325Z,91.56
2017-11-30T08:56:45.718Z,91.67
2017-11-30T08:59:13.124Z,91.67
2017-11-30T09:01:40.533Z,91.76
2017-11-30T09:04:07.936Z,91.74
2017-11-30T09:06:35.335Z,91.74
2017-11-30T09:09:02.744Z,91.78
2017-11-30T09:11:30.139Z,91.93
2017-11-30T09:13:57.549Z,91.92
2017-11-30T09:16:24.979Z,91.88
2017-11-30T09:18:52.423Z,91.87
2017-11-30T09:21:19.817Z,91.81
2017-11-30T09:23:47.233Z,91.62
2017-11-30T09:26:14.629Z,91.58
2017-11-30T09:28:42.023Z,91.61
2017-11-30T09:31:09.427Z,91.79
2017-11-30T09:33:36.827Z,90.59
2017-11-30T09:36:04.216Z,91.10
2017-11-30T09:38:31.632Z,91.08
2017-11-30T09:40:59.028Z,91.20
2017-11-30T09:43:26.581Z,91.42
2017-11-30T09:45:54.025Z,91.34
2017-11-30T09:48:21.432Z,91.64
2017-11-30T09:50:48.848Z,91.42
2017-11-30T09:53:16.272Z,91.41
2017-11-30T09:55:43.677Z,91.63
2017-11-30T09:58:11.076Z,91.70
2017-11-30T10:00:38.507Z,91.83
2017-11-30T10:03:05.944Z,91.84
2017-11-30T10:05:33.385Z,91.87
2017-11-30T10:08:00.827Z,91.47
2017-11-30T10:10:28.249Z,91.44
2017-11-30T10:12:55.631Z,91.53
2017-11-30T10:15:23.037Z,91.68
2017-11-30T10:17:50.428Z,91.50
2017-11-30T10:20:17.882Z,91.54
2017-11-30T10:22:45.287Z,91.65
2017-11-30T10:25:12.707Z,91.76
2017-11-30T10:27:40.113Z,91.63
2017-11-30T10:30:07.532Z,91.65
2017-11-30T10:32:34.951Z,91.80
2017-11-30T10:35:02.356Z,91.67
2017-11-30T10:37:29.801Z,91.86
2017-11-30T10:39:57.229Z,92.04
2017-11-30T10:42:24.647Z,92.11
2017-11-30T10:44:52.068Z,92.45
2017-11-30T10:47:19.468Z,92.64
2017-11-30T10:49:46.864Z,92.74
2017-11-30T10:52:14.295Z,93.00
2017-11-30T10:54:41.710Z,92.37
2017-11-30T10:57:09.120Z,93.12
2017-11-30T10:59:36.552Z,93.34
2017-11-30T11:02:03.958Z,93.24
2017-11-30T11:04:31.370Z,93.12
2017-11-30T11:06:58.784Z,93.38
2017-11-30T11:09:26.197Z,93.40
2017-11-30T11:11:53.600Z,93.80
2017-11-30T11:14:21.060Z,93.83
2017-11-30T11:16:48.471Z,93.67
2017-11-30T11:19:15.908Z,93.73
2017-11-30T11:21:43.317Z,94.09
2017-11-30T11:24:10.744Z,94.13
2017-11-30T11:26:38.146Z,93.96
2017-11-30T11:29:05.612Z,93.96
2017-11-30T11:31:33.008Z,93.99
2017-11-30T11:34:00.406Z,93.66
2017-11-30T11:36:27.831Z,93.09
2017-11-30T11:38:55.278Z,93.18
2017-11-30T11:41:22.684Z,92.96
2017-11-30T11:43:50.156Z,92.16
2017-11-30T11:46:17.560Z,92.54
2017-11-30T11:48:44.979Z,92.71
2017-11-30T11:51:12.473Z,92.93
2017-11-30T11:53:39.885Z,93.06
2017-11-30T11:56:07.291Z,92.58
2017-11-30T11:58:34.692Z,92.62
2017-11-30T12:01:02.090Z,92.52
2017-11-30T12:03:29.549Z,92.67
2017-11-30T12:05:56.986Z,92.40
2017-11-30T12:08:24.412Z,92.22
2017-11-30T12:10:51.790Z,92.47
2017-11-30T12:13:19.227Z,92.73
2017-11-30T12:15:46.689Z,92.61
2017-11-30T12:18:14.088Z,92.50
2017-11-30T12:20:41.508Z,92.17
2017-11-30T12:23:08.899Z,92.16
2017-11-30T12:25:36.343Z,92.19
2017-11-30T12:28:03.765Z,92.20
2017-11-30T12:30:31.151Z,91.30
2017-11-30T12:32:58.561Z,91.62
2017-11-30T12:35:25.982Z,91.96
2017-11-30T12:37:53.394Z,91.48
2017-11-30T12:40:20.811Z,91.68
2017-11-30T12:42:48.224Z,92.17
2017-11-30T12:45:15.623Z,91.85
2017-11-30T12:47:43.031Z,91.63
2017-11-30T12:50:10.443Z,91.76
2017-11-30T12:52:37.852Z,91.71
2017-11-30T12:55:05.274Z,91.74
2017-11-30T12:57:32.694Z,91.74
2017-11-30T13:00:00.100Z,91.62
2017-11-30T13:02:27.529Z,91.57
2017-11-30T13:04:54.946Z,91.73
2017-11-30T13:07:22.346Z,91.92
2017-11-30T13:09:49.758Z,91.86
2017-11-30T13:12:17.166Z,91.99
2017-11-30T13:14:44.604Z,91.84
2017-11-30T13:17:12.270Z,91.43
2017-11-30T13:19:39.690Z,91.47
2017-11-30T13:22:07.090Z,91.93
2017-11-30T13:24:34.491Z,91.68
2017-11-30T13:27:01.935Z,91.79
2017-11-30T13:29:29.373Z,91.62
2017-11-30T13:31:56.778Z,91.27
2017-11-30T13:34:24.226Z,91.24
2017-11-30T13:36:51.622Z,91.00
2017-11-30T13:39:19.036Z,90.72
2017-11-30T13:41:46.484Z,90.47
2017-11-30T13:44:13.934Z,90.69
2017-11-30T13:46:41.282Z,90.76
2017-11-30T13:49:08.686Z,91.45
2017-11-30T13:51:36.087Z,90.90
2017-11-30T13:54:03.494Z,90.81
2017-11-30T13:56:30.936Z,90.73
2017-11-30T13:58:58.327Z,90.85
2017-11-30T14:01:25.733Z,90.58
2017-11-30T14:03:53.190Z,90.69
2017-11-30T14:06:20.578Z,90.52
2017-11-30T14:08:48.000Z,91.11
2017-11-30T14:11:15.446Z,90.84
2017-11-30T14:13:42.825Z,90.97
2017-11-30T14:16:10.288Z,90.92
2017-11-30T14:18:37.698Z,91.20
2017-11-30T14:21:05.104Z,91.31
2017-11-30T14:23:32.508Z,91.18
2017-11-30T14:25:59.919Z,90.87
2017-11-30T14:28:27.374Z,90.62
2017-11-30T14:30:54.791Z,91.07
2017-11-30T14:33:22.206Z,90.81
2017-11-30T14:35:49.623Z,90.83
2017-11-30T14:38:17.026Z,90.89
2017-11-30T14:40:44.446Z,90.72
2017-11-30T14:43:11.850Z,90.27
2017-11-30T14:45:39.246Z,90.21
2017-11-30T14:48:06.694Z,90.72
2017-11-30T14:50:34.082Z,90.46
2017-11-30T14:53:01.492Z,90.72
2017-11-30T14:55:28.931Z,90.14
2017-11-30T14:57:56.466Z,89.86
2017-11-30T15:00:23.868Z,90.33
2017-11-30T15:02:51.462Z,89.98
2017-11-30T15:05:18.929Z,89.58
2017-11-30T15:07:46.322Z,89.80
2017-11-30T15:10:14.679Z,90.07
2017-11-30T15:12:42.136Z,89.95
2017-11-30T15:15:09.583Z,89.92
2017-11-30T15:17:37.016Z,89.89
2017-11-30T15:20:04.418Z,89.80
2017-11-30T15:22:31.840Z,89.32
2017-11-30T15:24:59.258Z,88.84
2017-11-30T15:27:26.642Z,89.27
2017-11-30T15:29:54.074Z,89.42
2017-11-30T15:32:21.526Z,89.55
2017-11-30T15:34:48.930Z,89.61
2017-11-30T15:37:16.339Z,89.73
2017-11-30T15:39:43.748Z,89.66
2017-11-30T15:42:11.141Z,89.65
2017-11-30T15:44:38.572Z,89.61
2017-11-30T15:47:05.982Z,89.24
2017-11-30T15:49:33.394Z,88.74
2017-11-30T15:52:00.803Z,88.92
2017-11-30T15:54:28.242Z,89.13
2017-11-30T15:56:55.634Z,89.32
2017-11-30T15:59:23.070Z,89.54
2017-11-30T16:01:50.479Z,89.68
2017-11-30T16:04:17.922Z,88.95
2017-11-30T16:06:45.334Z,88.92
2017-11-30T16:09:12.814Z,89.05
2017-11-30T16:11:40.226Z,89.45
2017-11-30T16:14:07.587Z,89.84
2017-11-30T16:16:35.048Z,90.01
2017-11-30T16:19:02.437Z,90.03
2017-11-30T16:21:29.876Z,90.33
2017-11-30T16:23:57.275Z,90.48
2017-11-30T16:26:24.683Z,90.67
2017-11-30T16:28:52.116Z,90.88
2017-11-30T16:31:19.531Z,91.02
2017-11-30T16:33:46.935Z,91.32
2017-11-30T16:36:14.320Z,91.46
2017-11-30T16:38:41.761Z,91.49
2017-11-30T16:41:09.174Z,91.60
2017-11-30T16:43:36.608Z,91.55
2017-11-30T16:46:04.030Z,91.59
2017-11-30T16:48:31.441Z,91.58
2017-11-30T16:50:58.907Z,91.61
2017-11-30T16:53:26.327Z,91.75
2017-11-30T16:55:53.702Z,91.71
2017-11-30T16:58:21.099Z,91.73
2017-11-30T17:00:49.103Z,91.81
2017-11-30T17:03:16.514Z,91.88
2017-11-30T17:05:43.906Z,91.88
2017-11-30T17:08:15.074Z,91.92
2017-11-30T17:10:42.797Z,91.90
2017-11-30T17:13:11.087Z,91.47
2017-11-30T17:15:39.094Z,89.94
2017-11-30T17:18:06.827Z,89.65
2017-11-30T17:20:34.238Z,89.65
2017-11-30T17:23:01.673Z,90.57
2017-11-30T17:25:29.090Z,90.94
2017-11-30T17:27:56.514Z,91.00
2017-11-30T17:30:23.925Z,90.02
2017-11-30T17:32:54.158Z,89.87
2017-11-30T17:35:21.554Z,90.52
2017-11-30T17:37:48.969Z,91.03
2017-11-30T17:40:16.374Z,91.37
2017-11-30T17:42:43.814Z,92.93
2017-11-30T17:45:11.238Z,93.71
2017-11-30T17:47:38.646Z,94.23
2017-11-30T17:50:06.086Z,94.51
2017-11-30T17:52:33.508Z,94.94
2017-11-30T17:55:00.913Z,95.01
2017-11-30T17:57:28.435Z,94.73
2017-11-30T17:59:55.871Z,94.89
2017-11-30T18:02:23.322Z,94.39
2017-11-30T18:04:50.726Z,93.90
2017-11-30T18:07:18.178Z,93.72
2017-11-30T18:09:45.578Z,93.58
2017-11-30T18:12:12.967Z,93.39
2017-11-30T18:14:40.450Z,93.32
2017-11-30T18:17:07.854Z,92.41
2017-11-30T18:19:35.270Z,92.48
2017-11-30T18:22:02.702Z,92.68
2017-11-30T18:24:30.100Z,92.70
2017-11-30T18:26:57.533Z,92.82
2017-11-30T18:29:24.955Z,92.96
2017-11-30T18:31:52.342Z,93.09
2017-11-30T18:34:19.749Z,93.18
2017-11-30T18:36:47.155Z,93.26
2017-11-30T18:39:14.574Z,93.36
2017-11-30T18:41:41.980Z,93.47
2017-11-30T18:44:09.443Z,93.25
2017-11-30T18:46:36.854Z,93.26
2017-11-30T18:49:04.247Z,93.27
2017-11-30T18:51:32.768Z,93.31
2017-11-30T18:54:00.154Z,92.81
2017-11-30T18:56:27.705Z,92.75
2017-11-30T18:58:56.103Z,92.64
2017-11-30T19:01:23.494Z,92.88
2017-11-30T19:03:51.554Z,93.23
2017-11-30T19:06:18.960Z,93.19
2017-11-30T19:08:46.349Z,93.22
2017-11-30T19:11:15.190Z,93.22
2017-11-30T19:13:42.595Z,93.01
2017-11-30T19:16:10.023Z,92.70
2017-11-30T19:18:37.419Z,92.87
2017-11-30T19:21:04.860Z,92.94
2017-11-30T19:23:32.278Z,92.98
2017-11-30T19:25:59.689Z,93.10
2017-11-30T19:28:27.286Z,93.25
2017-11-30T19:30:54.705Z,93.19
2017-11-30T19:33:22.110Z,93.24
2017-11-30T19:35:49.530Z,93.30
2017-11-30T19:38:17.076Z,93.30
2017-11-30T19:40:44.466Z,93.28
2017-11-30T19:43:11.870Z,93.17
2017-11-30T19:45:39.312Z,93.12
2017-11-30T19:48:06.698Z,93.25
2017-11-30T19:50:34.115Z,93.30
2017-11-30T19:53:01.506Z,93.32
2017-11-30T19:55:28.914Z,93.36
2017-11-30T19:57:56.367Z,93.52
2017-11-30T20:00:23.826Z,93.63
2017-11-30T20:02:51.273Z,93.58
2017-11-30T20:05:18.690Z,93.67
2017-11-30T20:07:46.087Z,93.37
2017-11-30T20:10:13.480Z,93.24
2017-11-30T20:12:40.922Z,93.23
2017-11-30T20:15:11.902Z,93.31
2017-11-30T20:17:40.481Z,93.28
2017-11-30T20:22:45.978Z,93.39
2017-11-30T20:25:13.378Z,93.30
2017-11-30T20:27:40.790Z,93.38
2017-11-30T20:30:08.598Z,93.40
2017-11-30T20:32:36.034Z,93.37
2017-11-30T20:35:03.435Z,93.37
2017-11-30T20:37:30.843Z,93.43
2017-11-30T20:39:58.242Z,93.48
2017-11-30T20:42:25.642Z,93.56
2017-11-30T20:44:53.054Z,93.50
2017-11-30T20:47:20.466Z,93.30
2017-11-30T20:49:47.857Z,93.26
2017-11-30T20:52:15.864Z,93.23
2017-11-30T20:54:43.262Z,93.21
2017-11-30T20:57:10.654Z,93.17
2017-11-30T20:59:38.066Z,93.19
2017-11-30T21:02:05.525Z,93.19
2017-11-30T21:04:32.914Z,93.16
2017-11-30T21:07:00.366Z,93.08
2017-11-30T21:09:27.749Z,93.04
2017-11-30T21:11:55.160Z,92.99
2017-11-30T21:14:22.581Z,93.04
2017-11-30T21:16:49.980Z,93.08
2017-11-30T21:19:17.366Z,93.00
2017-11-30T21:21:44.775Z,93.06
2017-11-30T21:24:12.173Z,93.22
2017-11-30T21:26:39.588Z,93.07
2017-11-30T21:29:07.015Z,92.93
2017-11-30T21:31:34.406Z,92.93
2017-11-30T21:34:01.814Z,92.94
2017-11-30T21:36:29.247Z,93.00
2017-11-30T21:38:56.638Z,92.94
2017-11-30T21:41:24.038Z,92.85
2017-11-30T21:43:51.446Z,92.75
2017-11-30T21:46:18.889Z,92.69
2017-11-30T21:48:46.297Z,92.63
2017-11-30T21:51:13.711Z,92.69
2017-11-30T21:53:41.118Z,92.78
2017-11-30T21:56:08.522Z,92.86
2017-11-30T21:58:36.035Z,92.92
2017-11-30T22:01:03.430Z,93.11
2017-11-30T22:03:30.831Z,93.16
2017-11-30T22:05:58.235Z,93.23
2017-11-30T22:08:25.638Z,93.21
2017-11-30T22:10:53.039Z,93.17
2017-11-30T22:13:20.446Z,93.17
2017-11-30T22:15:47.838Z,93.15
2017-11-30T22:18:15.251Z,93.14
2017-11-30T22:20:42.658Z,93.36
2017-11-30T22:23:10.051Z,93.40
2017-11-30T22:25:37.451Z,93.31
2017-11-30T22:28:04.866Z,93.23
2017-11-30T22:30:32.262Z,93.09
2017-11-30T22:32:59.655Z,93.16
2017-11-30T22:35:27.075Z,93.23
2017-11-30T22:37:54.478Z,93.69
2017-11-30T22:40:21.921Z,93.77
2017-11-30T22:42:49.330Z,93.54
2017-11-30T22:45:16.742Z,93.44
2017-11-30T22:47:44.129Z,93.37
2017-11-30T22:50:11.547Z,93.32
2017-11-30T22:52:38.939Z,93.31
2017-11-30T22:55:06.358Z,93.31
2017-11-30T22:57:33.828Z,93.26
2017-11-30T23:00:01.172Z,93.33
2017-11-30T23:02:28.569Z,93.37
2017-11-30T23:04:55.982Z,93.49
2017-11-30T23:07:23.382Z,93.58
2017-11-30T23:09:50.778Z,94.02
2017-11-30T23:12:18.190Z,93.92
2017-11-30T23:14:45.586Z,94.31
2017-11-30T23:17:13.001Z,94.33
2017-11-30T23:19:40.406Z,94.52
2017-11-30T23:22:07.806Z,94.35
2017-11-30T23:24:35.202Z,94.35
2017-11-30T23:27:02.616Z,94.16
2017-11-30T23:29:30.019Z,94.27
2017-11-30T23:31:57.427Z,94.32
2017-11-30T23:34:24.836Z,94.17
2017-11-30T23:36:52.238Z,94.61
2017-11-30T23:39:19.642Z,94.57
2017-11-30T23:41:47.062Z,94.69
2017-11-30T23:44:14.457Z,94.55
2017-11-30T23:46:41.865Z,94.74
2017-11-30T23:49:09.274Z,94.90
2017-11-30T23:51:36.662Z,94.87
2017-11-30T23:54:04.098Z,95.02
2017-11-30T23:56:31.488Z,94.88
2017-11-30T23:58:58.878Z,94.68
